Time;durP1;ratioP1;P1;durP2;ratioP2;P2;SDS_P1;SDS_P2;PMS_P1;PMS_P2;Temp;Humidity;BMP_temperature;BMP_pressure;BME280_temperature;BME280_humidity;BME280_pressure;Samples;Min_cycle;Max_cycle;Signal;HPM_P1;HPM_P2
2021/04/26 00:00:07;;;;;;;0.10;0.10;;;7.30;99.90;;;;;;5047133;28;20677;-80
2021/04/26 00:02:32;;;;;;;0.27;0.27;;;7.30;99.90;;;;;;5051905;28;20188;-80
2021/04/26 00:04:58;;;;;;;0.20;0.20;;;7.30;99.90;;;;;;5040624;28;20563;-80
2021/04/26 00:07:24;;;;;;;0.10;0.10;;;7.30;99.90;;;;;;5044283;28;20202;-80
2021/04/26 00:09:49;;;;;;;0.53;0.53;;;7.20;99.90;;;;;;5050561;28;20174;-80
2021/04/26 00:12:15;;;;;;;0.00;0.00;;;7.20;99.90;;;;;;5052389;28;20804;-82
2021/04/26 00:14:41;;;;;;;0.20;0.20;;;7.20;99.90;;;;;;5033557;28;20209;-81
2021/04/26 00:17:06;;;;;;;0.97;0.87;;;7.10;99.90;;;;;;5052182;28;20200;-81
2021/04/26 00:19:32;;;;;;;0.10;0.10;;;7.20;99.90;;;;;;5027427;28;20562;-81
2021/04/26 00:21:58;;;;;;;0.30;0.30;;;7.20;99.90;;;;;;5040003;28;20231;-81
2021/04/26 00:24:23;;;;;;;0.20;0.10;;;7.20;99.90;;;;;;5048648;28;20209;-81
2021/04/26 00:26:49;;;;;;;0.10;0.10;;;7.20;99.90;;;;;;5046758;28;20209;-81
2021/04/26 00:29:14;;;;;;;0.20;0.20;;;7.20;99.90;;;;;;5052356;28;20177;-81
2021/04/26 00:31:40;;;;;;;0.27;0.10;;;7.10;99.90;;;;;;5065617;28;20646;-81
2021/04/26 00:34:05;;;;;;;0.17;0.17;;;7.10;99.90;;;;;;5055026;28;20209;-81
2021/04/26 00:36:31;;;;;;;0.10;0.10;;;7.00;99.90;;;;;;5055591;28;20181;-81
2021/04/26 00:38:56;;;;;;;0.13;0.13;;;7.00;99.90;;;;;;5065354;28;20189;-81
2021/04/26 00:41:22;;;;;;;0.10;0.10;;;6.90;99.90;;;;;;5050807;28;20198;-81
2021/04/26 00:43:48;;;;;;;0.10;0.10;;;6.90;99.90;;;;;;5036394;28;20779;-81
2021/04/26 00:46:15;;;;;;;0.10;0.10;;;6.90;99.90;;;;;;5031009;28;20595;-81
2021/04/26 00:48:41;;;;;;;0.20;0.20;;;6.90;99.90;;;;;;5055202;28;20618;-81
2021/04/26 00:51:07;;;;;;;0.10;0.10;;;6.90;99.90;;;;;;5047750;28;20184;-81
2021/04/26 00:53:33;;;;;;;0.20;0.20;;;6.80;99.90;;;;;;5072099;28;20637;-81
2021/04/26 00:56:00;;;;;;;0.30;0.30;;;6.80;99.90;;;;;;5042747;28;20226;-81
2021/04/26 00:58:25;;;;;;;0.10;0.10;;;6.80;99.90;;;;;;5051349;28;20210;-81
2021/04/26 01:00:52;;;;;;;0.03;0.03;;;6.70;99.90;;;;;;5050822;28;20216;-81
2021/04/26 01:03:18;;;;;;;0.00;0.00;;;6.70;99.90;;;;;;5067035;28;20203;-81
2021/04/26 01:05:43;;;;;;;0.10;0.10;;;6.70;99.90;;;;;;5034203;28;20191;-81
2021/04/26 01:08:09;;;;;;;0.20;0.20;;;6.60;99.90;;;;;;5054041;28;20226;-81
2021/04/26 01:10:35;;;;;;;0.20;0.20;;;6.60;99.90;;;;;;5034809;28;20189;-81
2021/04/26 01:13:10;;;;;;;0.10;0.10;;;6.50;99.90;;;;;;5034585;28;20182;-81
2021/04/26 01:16:00;;;;;;;0.00;0.00;;;6.50;99.90;;;;;;5048623;28;20237;-82
2021/04/26 01:18:51;;;;;;;0.50;0.50;;;6.40;99.90;;;;;;5053636;28;20193;-81
2021/04/26 01:21:44;;;;;;;1.50;0.93;;;6.40;99.90;;;;;;5055017;28;20186;-81
2021/04/26 01:24:27;;;;;;;1.47;0.20;;;6.40;99.90;;;;;;5049288;28;20205;-80
2021/04/26 01:27:06;;;;;;;0.43;0.43;;;6.30;99.90;;;;;;5044673;28;20625;-82
2021/04/26 01:29:34;;;;;;;0.20;0.20;;;6.30;99.90;;;;;;5052964;28;20652;-81
2021/04/26 01:32:38;;;;;;;11.43;0.47;;;6.20;99.90;;;;;;5060354;28;20217;-81
2021/04/26 01:35:05;;;;;;;0.10;0.10;;;6.20;99.90;;;;;;5010886;28;20690;-81
2021/04/26 01:37:35;;;;;;;0.10;0.10;;;6.20;99.90;;;;;;5051934;28;20658;-81
2021/04/26 01:40:03;;;;;;;0.10;0.10;;;6.20;99.90;;;;;;5062040;28;20668;-81
2021/04/26 01:42:31;;;;;;;0.10;0.10;;;6.10;99.90;;;;;;5043526;28;20202;-81
2021/04/26 01:44:58;;;;;;;0.20;0.20;;;6.00;99.90;;;;;;5056262;28;20221;-81
2021/04/26 01:47:25;;;;;;;0.10;0.10;;;6.00;99.90;;;;;;5051826;28;20666;-81
2021/04/26 01:49:52;;;;;;;0.13;0.13;;;6.00;99.90;;;;;;5037615;28;20246;-81
2021/04/26 01:52:17;;;;;;;0.10;0.10;;;6.00;99.90;;;;;;5036275;28;20186;-81
2021/04/26 01:54:43;;;;;;;0.10;0.10;;;6.00;99.90;;;;;;5048148;28;20566;-81
2021/04/26 01:57:09;;;;;;;0.73;0.20;;;5.90;99.90;;;;;;5039963;28;20181;-81
2021/04/26 01:59:37;;;;;;;0.20;0.20;;;5.90;99.90;;;;;;5050946;28;20192;-81
2021/04/26 02:02:03;;;;;;;0.10;0.10;;;5.90;99.90;;;;;;5054173;28;20694;-81
2021/04/26 02:04:32;;;;;;;0.10;0.10;;;5.90;99.90;;;;;;5054044;28;20696;-81
2021/04/26 02:07:00;;;;;;;0.20;0.20;;;5.90;99.90;;;;;;5054408;28;20692;-81
2021/04/26 02:09:27;;;;;;;0.27;0.27;;;5.90;99.90;;;;;;5043917;28;20188;-81
2021/04/26 02:11:53;;;;;;;0.10;0.10;;;5.80;99.90;;;;;;5039692;28;20248;-81
2021/04/26 02:14:19;;;;;;;0.43;0.23;;;5.80;99.90;;;;;;5063383;28;20284;-81
2021/04/26 02:16:45;;;;;;;0.10;0.10;;;5.80;99.90;;;;;;5057346;28;20287;-81
2021/04/26 02:19:12;;;;;;;0.20;0.20;;;5.80;99.90;;;;;;5038245;28;20593;-81
2021/04/26 02:21:40;;;;;;;0.13;0.13;;;5.70;99.90;;;;;;5054299;28;20192;-81
2021/04/26 02:24:08;;;;;;;0.10;0.10;;;5.70;99.90;;;;;;5035509;28;20209;-81
2021/04/26 02:26:33;;;;;;;0.20;0.20;;;5.70;99.90;;;;;;5052428;28;20266;-81
2021/04/26 02:28:59;;;;;;;0.10;0.10;;;5.70;99.90;;;;;;5038783;28;20227;-81
2021/04/26 02:31:26;;;;;;;0.20;0.20;;;5.70;99.90;;;;;;5060446;28;20606;-81
2021/04/26 02:34:09;;;;;;;0.20;0.20;;;5.60;99.90;;;;;;5030762;28;20210;-81
2021/04/26 02:36:38;;;;;;;0.10;0.10;;;5.60;99.90;;;;;;5024765;28;20228;-81
2021/04/26 02:39:06;;;;;;;0.20;0.20;;;5.60;99.90;;;;;;5029405;28;20191;-81
2021/04/26 02:41:35;;;;;;;0.10;0.10;;;5.50;99.90;;;;;;5053187;28;20208;-81
2021/04/26 02:44:06;;;;;;;0.20;0.20;;;5.50;99.90;;;;;;5045599;28;20219;-82
2021/04/26 02:46:34;;;;;;;0.10;0.10;;;5.50;99.90;;;;;;5036074;28;20294;-82
2021/04/26 02:49:02;;;;;;;0.33;0.30;;;5.50;99.90;;;;;;5054439;28;20200;-82
2021/04/26 02:51:29;;;;;;;0.50;0.50;;;5.40;99.90;;;;;;5035710;28;20189;-82
2021/04/26 02:53:56;;;;;;;0.10;0.10;;;5.40;99.90;;;;;;5049490;28;20337;-82
2021/04/26 02:56:22;;;;;;;0.13;0.13;;;5.50;99.90;;;;;;5032197;28;20191;-82
2021/04/26 02:58:52;;;;;;;0.30;0.30;;;5.40;99.90;;;;;;5032399;28;20193;-82
2021/04/26 03:01:18;;;;;;;0.20;0.20;;;5.30;99.90;;;;;;5053355;28;20197;-82
2021/04/26 03:03:44;;;;;;;0.47;0.47;;;5.30;99.90;;;;;;5036239;28;20229;-82
2021/04/26 03:06:13;;;;;;;0.13;0.13;;;5.30;99.90;;;;;;5051212;28;20198;-82
2021/04/26 03:08:39;;;;;;;0.10;0.10;;;5.30;99.90;;;;;;5054122;28;20192;-82
2021/04/26 03:11:06;;;;;;;0.40;0.40;;;5.30;99.90;;;;;;5054441;28;20186;-82
2021/04/26 03:13:34;;;;;;;0.10;0.10;;;5.20;99.90;;;;;;5035623;28;20638;-82
2021/04/26 03:15:59;;;;;;;0.10;0.10;;;5.10;99.90;;;;;;5053676;28;20197;-82
2021/04/26 03:18:26;;;;;;;0.10;0.10;;;5.10;99.90;;;;;;5035417;28;20243;-82
2021/04/26 03:20:52;;;;;;;0.20;0.20;;;5.10;99.90;;;;;;5049292;28;20186;-82
2021/04/26 03:23:26;;;;;;;0.10;0.10;;;5.00;99.90;;;;;;5067307;28;20213;-82
2021/04/26 03:25:56;;;;;;;0.10;0.10;;;5.00;99.90;;;;;;5060821;28;20186;-82
2021/04/26 03:28:23;;;;;;;0.10;0.10;;;4.90;99.90;;;;;;5022980;28;20205;-82
2021/04/26 03:30:49;;;;;;;0.57;0.37;;;4.90;99.90;;;;;;5022220;28;20181;-81
2021/04/26 03:33:16;;;;;;;0.10;0.10;;;4.90;99.90;;;;;;5040276;28;20216;-82
2021/04/26 03:35:43;;;;;;;0.30;0.20;;;4.80;99.90;;;;;;5027335;28;20192;-81
2021/04/26 03:38:10;;;;;;;0.30;0.30;;;4.90;99.90;;;;;;5058459;28;20233;-82
2021/04/26 03:40:36;;;;;;;0.73;0.70;;;4.90;99.90;;;;;;5070478;28;20715;-82
2021/04/26 03:43:02;;;;;;;0.13;0.13;;;4.90;99.90;;;;;;5042064;28;20185;-82
2021/04/26 03:45:28;;;;;;;0.27;0.27;;;4.80;99.90;;;;;;5039471;28;20684;-81
2021/04/26 03:47:55;;;;;;;0.27;0.27;;;4.80;99.90;;;;;;5049714;28;20223;-82
2021/04/26 03:50:22;;;;;;;0.10;0.10;;;4.80;99.90;;;;;;5032689;28;20193;-82
2021/04/26 03:52:48;;;;;;;0.20;0.20;;;4.70;99.90;;;;;;5033545;28;20194;-81
2021/04/26 03:55:18;;;;;;;0.10;0.10;;;4.80;99.90;;;;;;5035762;28;20205;-82
2021/04/26 03:57:43;;;;;;;0.10;0.10;;;4.80;99.90;;;;;;5056726;28;20246;-82
2021/04/26 04:00:11;;;;;;;0.17;0.17;;;4.70;99.90;;;;;;5033516;28;20195;-82
2021/04/26 04:02:37;;;;;;;0.40;0.40;;;4.80;99.90;;;;;;5032942;28;20197;-82
2021/04/26 04:05:06;;;;;;;0.20;0.20;;;4.80;99.90;;;;;;5033513;28;20241;-82
2021/04/26 04:07:32;;;;;;;0.10;0.10;;;4.90;99.90;;;;;;5029981;28;20217;-82
2021/04/26 04:09:58;;;;;;;0.13;0.13;;;4.80;99.90;;;;;;5054412;28;20220;-82
2021/04/26 04:12:24;;;;;;;0.00;0.00;;;4.80;99.90;;;;;;5062388;28;20182;-82
2021/04/26 04:14:50;;;;;;;0.20;0.20;;;4.80;99.90;;;;;;5039786;28;20206;-82
2021/04/26 04:17:16;;;;;;;0.17;0.17;;;4.80;99.90;;;;;;5034536;28;20639;-82
2021/04/26 04:19:42;;;;;;;0.40;0.40;;;4.80;99.90;;;;;;5036597;28;20198;-82
2021/04/26 04:22:07;;;;;;;0.10;0.10;;;4.80;99.90;;;;;;5043550;28;20433;-82
2021/04/26 04:24:33;;;;;;;0.10;0.10;;;4.80;99.90;;;;;;5064669;28;20628;-82
2021/04/26 04:26:59;;;;;;;0.00;0.00;;;4.90;99.90;;;;;;5037922;28;20829;-82
2021/04/26 04:29:24;;;;;;;0.10;0.10;;;5.00;99.90;;;;;;5039240;28;20246;-82
2021/04/26 04:31:50;;;;;;;0.20;0.20;;;5.00;99.90;;;;;;5061662;28;20189;-82
2021/04/26 04:34:16;;;;;;;0.10;0.10;;;5.00;99.90;;;;;;5039669;28;20226;-82
2021/04/26 04:36:41;;;;;;;0.10;0.10;;;5.10;99.90;;;;;;5057030;28;20208;-82
2021/04/26 04:39:07;;;;;;;0.10;0.10;;;5.10;99.90;;;;;;5050383;28;20190;-82
2021/04/26 04:41:32;;;;;;;0.17;0.17;;;5.10;99.90;;;;;;5040911;28;20185;-82
2021/04/26 04:43:59;;;;;;;0.10;0.10;;;5.20;99.90;;;;;;5062517;28;20758;-82
2021/04/26 04:46:26;;;;;;;0.10;0.10;;;5.30;99.90;;;;;;5051424;28;20196;-81
2021/04/26 04:48:51;;;;;;;0.97;0.97;;;5.30;99.90;;;;;;5052140;28;20257;-82
2021/04/26 04:51:17;;;;;;;0.10;0.10;;;5.30;99.90;;;;;;5039564;28;20230;-81
2021/04/26 04:53:43;;;;;;;1.80;1.47;;;5.40;99.90;;;;;;5055922;28;20254;-81
2021/04/26 04:56:08;;;;;;;0.40;0.40;;;5.40;99.90;;;;;;5034843;28;20266;-81
2021/04/26 04:58:34;;;;;;;0.20;0.20;;;5.50;99.90;;;;;;5052294;28;20193;-81
2021/04/26 05:00:59;;;;;;;0.10;0.10;;;5.50;99.90;;;;;;5030958;28;20193;-81
2021/04/26 05:03:25;;;;;;;0.37;0.37;;;5.60;99.90;;;;;;5040806;28;20203;-81
2021/04/26 05:05:51;;;;;;;0.10;0.10;;;5.60;99.90;;;;;;5045623;28;20280;-81
2021/04/26 05:08:16;;;;;;;0.20;0.20;;;5.70;99.90;;;;;;5040573;28;20221;-81
2021/04/26 05:10:42;;;;;;;0.13;0.13;;;5.80;99.90;;;;;;5034371;28;20182;-81
2021/04/26 05:13:08;;;;;;;0.10;0.10;;;5.80;99.90;;;;;;5041017;28;20216;-81
2021/04/26 05:15:34;;;;;;;0.20;0.20;;;5.90;99.90;;;;;;5060444;28;20246;-81
2021/04/26 05:17:59;;;;;;;0.10;0.10;;;5.90;99.90;;;;;;5042378;28;20542;-80
2021/04/26 05:20:25;;;;;;;0.10;0.10;;;6.00;99.90;;;;;;5041043;28;20232;-80
2021/04/26 05:22:51;;;;;;;0.10;0.10;;;6.10;99.90;;;;;;5041466;28;20178;-80
2021/04/26 05:25:17;;;;;;;0.10;0.10;;;6.10;99.90;;;;;;5043060;28;20300;-80
2021/04/26 05:27:42;;;;;;;0.17;0.17;;;6.20;99.90;;;;;;5056002;28;20201;-82
2021/04/26 05:30:09;;;;;;;0.10;0.10;;;6.20;99.90;;;;;;5045444;28;20622;-80
2021/04/26 05:32:35;;;;;;;0.10;0.10;;;6.40;99.90;;;;;;5061894;28;20182;-81
2021/04/26 05:35:01;;;;;;;0.10;0.10;;;6.40;99.90;;;;;;5038729;28;20212;-81
2021/04/26 05:37:26;;;;;;;0.10;0.10;;;6.60;99.90;;;;;;5058101;28;20688;-81
2021/04/26 05:39:52;;;;;;;0.13;0.13;;;6.50;99.90;;;;;;5060406;28;20264;-81
2021/04/26 05:42:17;;;;;;;1.50;0.30;;;6.60;99.90;;;;;;5058047;28;20208;-81
2021/04/26 05:44:43;;;;;;;0.10;0.10;;;6.80;99.90;;;;;;5037512;28;20217;-82
2021/04/26 05:47:09;;;;;;;0.10;0.10;;;6.80;99.90;;;;;;5042121;28;20213;-82
2021/04/26 05:49:34;;;;;;;0.10;0.10;;;6.70;99.90;;;;;;5043347;28;20672;-81
2021/04/26 05:52:00;;;;;;;0.13;0.13;;;6.80;99.90;;;;;;5048761;28;20270;-81
2021/04/26 05:54:25;;;;;;;0.47;0.17;;;6.90;99.90;;;;;;5039341;28;20198;-81
2021/04/26 05:56:51;;;;;;;0.10;0.10;;;6.90;99.90;;;;;;5058095;28;20192;-82
2021/04/26 05:59:16;;;;;;;0.37;0.23;;;7.00;99.90;;;;;;5037523;28;20194;-81
2021/04/26 06:01:42;;;;;;;0.10;0.10;;;7.00;99.90;;;;;;5052916;28;20210;-82
2021/04/26 06:04:08;;;;;;;0.13;0.13;;;7.10;99.90;;;;;;5044104;28;20244;-82
2021/04/26 06:06:34;;;;;;;0.40;0.40;;;7.10;99.90;;;;;;5058209;28;20223;-82
2021/04/26 06:08:59;;;;;;;0.60;0.33;;;7.10;99.90;;;;;;5036987;28;20693;-82
2021/04/26 06:11:25;;;;;;;0.37;0.37;;;7.30;99.90;;;;;;5054726;28;20189;-81
2021/04/26 06:13:51;;;;;;;0.10;0.10;;;7.30;99.90;;;;;;5046879;28;20680;-81
2021/04/26 06:16:16;;;;;;;0.10;0.10;;;7.40;99.90;;;;;;5052386;28;20221;-81
2021/04/26 06:18:42;;;;;;;0.37;0.27;;;7.50;99.90;;;;;;5037445;28;20654;-81
2021/04/26 06:21:07;;;;;;;0.13;0.13;;;7.60;99.90;;;;;;5054261;28;20538;-81
2021/04/26 06:23:33;;;;;;;0.10;0.10;;;7.80;99.90;;;;;;5044246;28;20197;-81
2021/04/26 06:25:59;;;;;;;0.30;0.30;;;7.80;99.90;;;;;;5053969;28;20182;-81
2021/04/26 06:28:24;;;;;;;2.63;0.73;;;7.70;99.90;;;;;;5044942;28;20665;-81
2021/04/26 06:30:51;;;;;;;0.10;0.10;;;8.00;99.90;;;;;;5045529;28;20182;-81
2021/04/26 06:33:16;;;;;;;0.10;0.10;;;8.00;99.90;;;;;;5043250;28;20213;-81
2021/04/26 06:35:44;;;;;;;0.10;0.10;;;7.90;99.90;;;;;;5056321;28;20186;-81
2021/04/26 06:38:10;;;;;;;2.30;0.40;;;7.90;99.90;;;;;;5043160;28;20185;-81
2021/04/26 06:40:37;;;;;;;0.20;0.20;;;8.00;99.90;;;;;;5060679;28;20220;-81
2021/04/26 06:43:03;;;;;;;0.10;0.10;;;8.40;99.90;;;;;;5065092;28;20254;-81
2021/04/26 06:45:29;;;;;;;0.20;0.20;;;8.20;99.90;;;;;;5062577;28;20198;-81
2021/04/26 06:47:55;;;;;;;0.10;0.10;;;8.20;99.90;;;;;;5043277;28;20202;-80
2021/04/26 06:50:22;;;;;;;2.83;1.63;;;8.50;99.90;;;;;;5084167;23;20282;-79
2021/04/26 06:52:49;;;;;;;0.10;0.10;;;8.60;99.90;;;;;;5095767;28;20184;-79
2021/04/26 06:55:15;;;;;;;0.10;0.10;;;8.60;99.90;;;;;;5088584;28;20182;-79
2021/04/26 06:57:41;;;;;;;0.30;0.10;;;8.70;99.90;;;;;;5090782;28;20317;-79
2021/04/26 07:00:07;;;;;;;0.10;0.10;;;8.50;99.90;;;;;;5071614;28;20552;-78
2021/04/26 07:02:33;;;;;;;0.10;0.10;;;8.60;99.90;;;;;;5067293;28;20187;-79
2021/04/26 07:04:59;;;;;;;0.00;0.00;;;8.50;99.90;;;;;;5073978;28;20191;-79
2021/04/26 07:07:25;;;;;;;0.40;0.33;;;8.70;99.90;;;;;;5069373;28;20202;-78
2021/04/26 07:09:51;;;;;;;0.10;0.10;;;8.60;99.90;;;;;;5065419;28;20247;-80
2021/04/26 07:12:18;;;;;;;0.37;0.37;;;8.70;99.90;;;;;;5072259;28;20190;-79
2021/04/26 07:14:44;;;;;;;0.27;0.27;;;8.60;99.90;;;;;;5066909;28;20177;-78
2021/04/26 07:17:09;;;;;;;0.53;0.53;;;8.60;99.90;;;;;;5063681;28;20190;-79
2021/04/26 07:19:35;;;;;;;0.17;0.17;;;8.60;99.90;;;;;;5073026;28;20262;-77
2021/04/26 07:22:01;;;;;;;0.00;0.00;;;8.70;99.90;;;;;;5076333;28;20186;-79
2021/04/26 07:24:27;;;;;;;0.30;0.30;;;8.80;99.90;;;;;;5058384;28;20221;-80
2021/04/26 07:26:53;;;;;;;0.10;0.10;;;9.10;99.90;;;;;;5082100;28;20318;-78
2021/04/26 07:29:18;;;;;;;0.00;0.00;;;9.10;99.90;;;;;;5071895;28;20214;-79
2021/04/26 07:31:44;;;;;;;1.20;0.30;;;9.20;99.90;;;;;;5057808;28;20183;-79
2021/04/26 07:34:10;;;;;;;0.20;0.20;;;8.90;99.90;;;;;;5077407;28;20633;-78
2021/04/26 07:36:36;;;;;;;0.10;0.10;;;8.90;99.90;;;;;;5078663;28;20243;-77
2021/04/26 07:39:03;;;;;;;0.20;0.20;;;9.10;99.90;;;;;;5076350;28;20193;-79
2021/04/26 07:41:29;;;;;;;0.33;0.33;;;9.00;99.90;;;;;;5067082;28;20681;-80
2021/04/26 07:43:54;;;;;;;0.30;0.30;;;9.00;99.90;;;;;;5060937;28;20189;-79
2021/04/26 07:46:20;;;;;;;0.20;0.20;;;9.20;99.90;;;;;;5057434;28;20192;-78
2021/04/26 07:48:46;;;;;;;1.00;0.73;;;9.30;99.90;;;;;;5070640;28;20213;-79
2021/04/26 07:51:11;;;;;;;0.27;0.27;;;9.50;99.90;;;;;;5086744;28;20224;-80
2021/04/26 07:53:37;;;;;;;0.17;0.17;;;9.80;99.90;;;;;;5074245;28;20231;-80
2021/04/26 07:56:03;;;;;;;0.10;0.10;;;9.90;99.90;;;;;;5057081;28;20292;-80
2021/04/26 07:58:29;;;;;;;0.17;0.17;;;10.00;99.90;;;;;;5074188;28;20214;-79
2021/04/26 08:00:57;;;;;;;0.10;0.10;;;10.00;99.90;;;;;;5058071;28;20210;-78
2021/04/26 08:03:22;;;;;;;0.20;0.20;;;10.10;99.90;;;;;;5075621;28;20188;-78
2021/04/26 08:05:48;;;;;;;0.50;0.50;;;9.70;99.90;;;;;;5087311;28;20199;-80
2021/04/26 08:08:14;;;;;;;0.77;0.40;;;10.40;99.90;;;;;;5067546;28;20214;-80
2021/04/26 08:10:39;;;;;;;0.20;0.20;;;10.60;99.90;;;;;;5076851;28;20353;-79
2021/04/26 08:13:05;;;;;;;0.20;0.20;;;10.00;99.90;;;;;;5061654;28;20195;-79
2021/04/26 08:15:31;;;;;;;0.23;0.23;;;10.30;99.90;;;;;;5063597;28;20184;-80
2021/04/26 08:17:57;;;;;;;6.50;0.40;;;10.30;99.90;;;;;;5096026;28;20191;-80
2021/04/26 08:20:22;;;;;;;0.30;0.30;;;10.00;99.90;;;;;;5076916;28;20210;-80
2021/04/26 08:22:48;;;;;;;0.40;0.27;;;9.70;99.90;;;;;;5075260;28;20192;-79
2021/04/26 08:25:13;;;;;;;0.10;0.10;;;10.00;99.90;;;;;;5057437;28;20192;-80
2021/04/26 08:27:39;;;;;;;0.10;0.10;;;10.40;99.90;;;;;;5057175;28;20215;-79
2021/04/26 08:30:07;;;;;;;0.23;0.20;;;10.30;99.90;;;;;;5068326;28;20580;-79
2021/04/26 08:32:33;;;;;;;1.50;1.40;;;10.10;99.90;;;;;;5056216;28;20195;-80
2021/04/26 08:34:59;;;;;;;0.13;0.13;;;10.20;99.90;;;;;;5075480;28;20187;-80
2021/04/26 08:37:25;;;;;;;0.10;0.10;;;10.00;99.90;;;;;;5073716;28;20190;-80
2021/04/26 08:39:50;;;;;;;0.10;0.10;;;10.00;99.90;;;;;;5063702;28;20773;-80
2021/04/26 08:42:17;;;;;;;0.30;0.30;;;10.10;99.90;;;;;;5065504;28;20196;-79
2021/04/26 08:44:43;;;;;;;0.13;0.13;;;10.40;99.90;;;;;;5073991;28;20275;-79
2021/04/26 08:47:10;;;;;;;0.10;0.10;;;10.70;99.90;;;;;;5076345;28;20315;-80
2021/04/26 08:49:36;;;;;;;0.27;0.27;;;11.10;99.90;;;;;;5081379;28;20714;-80
2021/04/26 08:52:02;;;;;;;0.13;0.13;;;11.10;99.90;;;;;;5079283;28;20180;-80
2021/04/26 08:54:27;;;;;;;0.10;0.10;;;10.80;99.90;;;;;;5060120;28;20282;-79
2021/04/26 08:56:53;;;;;;;0.10;0.10;;;10.70;99.90;;;;;;5092815;28;20648;-79
2021/04/26 08:59:19;;;;;;;0.20;0.20;;;10.60;99.90;;;;;;5063244;28;20193;-79
2021/04/26 09:01:48;;;;;;;0.00;0.00;;;10.80;99.90;;;;;;5087761;28;20184;-78
2021/04/26 09:04:15;;;;;;;2.13;0.63;;;10.90;99.90;;;;;;5071984;28;20193;-80
2021/04/26 09:06:58;;;;;;;0.10;0.10;;;11.10;99.90;;;;;;5079447;28;20233;-78
2021/04/26 09:09:33;;;;;;;0.40;0.40;;;11.40;99.90;;;;;;5065547;28;20204;-80
2021/04/26 09:11:59;;;;;;;0.10;0.10;;;11.40;99.90;;;;;;5070087;28;20185;-78
2021/04/26 09:14:51;;;;;;;0.50;0.50;;;11.50;99.90;;;;;;5091866;28;20188;-79
2021/04/26 09:17:34;;;;;;;1.80;1.70;;;11.50;99.90;;;;;;5082132;28;20191;-80
2021/04/26 09:20:14;;;;;;;0.13;0.13;;;11.30;99.90;;;;;;5059573;28;20696;-80
2021/04/26 09:22:40;;;;;;;0.50;0.50;;;11.50;99.90;;;;;;5073037;28;20563;-80
2021/04/26 09:25:33;;;;;;;0.97;0.20;;;11.20;99.90;;;;;;5083823;28;20196;-80
2021/04/26 09:28:00;;;;;;;0.10;0.10;;;11.00;99.90;;;;;;5068870;28;20216;-79
2021/04/26 09:30:56;;;;;;;0.23;0.23;;;11.50;99.90;;;;;;5067391;28;20215;-80
2021/04/26 09:33:27;;;;;;;0.83;0.20;;;11.80;99.90;;;;;;5067934;28;20193;-80
2021/04/26 09:38:43;;;;;;;0.57;0.33;;;12.00;99.90;;;;;;5078691;28;20216;-81
2021/04/26 09:41:24;;;;;;;0.20;0.20;;;12.30;99.90;;;;;;5064542;28;20209;-81
2021/04/26 09:44:02;;;;;;;0.20;0.10;;;12.00;99.90;;;;;;5061075;28;20185;-79
2021/04/26 09:46:43;;;;;;;0.17;0.17;;;12.60;99.90;;;;;;5089674;28;20188;-81
2021/04/26 09:49:13;;;;;;;0.43;0.30;;;12.40;99.90;;;;;;5059663;28;20203;-81
2021/04/26 09:51:39;;;;;;;0.20;0.20;;;12.40;99.90;;;;;;5084739;28;20184;-80
2021/04/26 09:54:05;;;;;;;0.00;0.00;;;12.50;99.90;;;;;;5085462;28;20195;-78
2021/04/26 09:56:41;;;;;;;0.10;0.10;;;12.80;99.90;;;;;;5072019;28;20272;-79
2021/04/26 09:59:08;;;;;;;0.10;0.10;;;12.30;99.90;;;;;;5084481;28;20180;-79
2021/04/26 10:01:34;;;;;;;0.30;0.30;;;12.30;99.90;;;;;;5065667;28;20187;-80
2021/04/26 10:04:02;;;;;;;2.20;0.63;;;12.00;99.90;;;;;;5077750;28;20188;-80
2021/04/26 10:06:27;;;;;;;0.30;0.17;;;12.20;99.90;;;;;;5081637;28;20188;-79
2021/04/26 10:08:55;;;;;;;0.23;0.23;;;12.40;99.90;;;;;;5086081;28;20185;-79
2021/04/26 10:11:23;;;;;;;0.83;0.30;;;12.30;99.90;;;;;;5070713;28;20203;-77
2021/04/26 10:13:50;;;;;;;0.73;0.73;;;12.50;99.90;;;;;;5093533;28;20177;-79
2021/04/26 10:16:23;;;;;;;1.70;0.73;;;13.10;99.90;;;;;;5084063;28;20243;-80
2021/04/26 10:18:49;;;;;;;0.20;0.20;;;13.00;99.90;;;;;;5074481;28;20187;-80
2021/04/26 10:21:18;;;;;;;0.10;0.10;;;13.60;99.90;;;;;;5072246;28;20231;-79
2021/04/26 10:23:48;;;;;;;0.67;0.67;;;12.80;99.90;;;;;;5064944;28;20196;-79
2021/04/26 10:26:43;;;;;;;0.07;0.07;;;12.60;99.90;;;;;;5066507;28;20227;-79
2021/04/26 10:29:25;;;;;;;0.57;0.57;;;13.00;99.90;;;;;;5074461;28;20754;-80
2021/04/26 10:32:05;;;;;;;0.10;0.10;;;13.30;99.90;;;;;;5083540;28;20655;-83
2021/04/26 10:34:35;;;;;;;0.10;0.10;;;13.20;99.90;;;;;;5075809;28;20180;-80
2021/04/26 10:37:20;;;;;;;0.10;0.10;;;13.40;99.90;;;;;;5083677;28;20181;-80
2021/04/26 10:39:58;;;;;;;0.10;0.10;;;13.50;99.60;;;;;;5079787;28;20201;-81
2021/04/26 10:42:48;;;;;;;0.10;0.10;;;13.00;99.40;;;;;;5062208;28;20234;-80
2021/04/26 10:45:13;;;;;;;0.17;0.17;;;12.90;99.90;;;;;;5083182;28;20181;-80
2021/04/26 10:47:43;;;;;;;0.33;0.33;;;13.50;99.90;;;;;;5068951;28;20205;-80
2021/04/26 10:50:09;;;;;;;0.10;0.10;;;14.00;99.80;;;;;;5073494;28;20215;-81
2021/04/26 10:52:40;;;;;;;0.10;0.10;;;14.20;99.90;;;;;;5062780;28;20528;-81
2021/04/26 10:55:31;;;;;;;0.33;0.30;;;13.50;98.60;;;;;;5085282;28;20270;-81
2021/04/26 10:58:01;;;;;;;0.20;0.20;;;13.60;99.90;;;;;;5071675;28;20628;-81
2021/04/26 11:00:27;;;;;;;0.37;0.10;;;13.20;99.20;;;;;;5079830;28;20202;-80
2021/04/26 11:02:59;;;;;;;0.30;0.30;;;13.60;99.10;;;;;;5095697;28;20565;-81
2021/04/26 11:05:39;;;;;;;0.10;0.10;;;14.10;99.90;;;;;;5080928;28;20181;-79
2021/04/26 11:10:34;;;;;;;0.10;0.10;;;14.40;98.70;;;;;;5099394;28;20262;-80
2021/04/26 11:13:22;;;;;;;0.10;0.10;;;14.10;99.10;;;;;;5078498;28;20642;-80
2021/04/26 11:16:07;;;;;;;0.10;0.10;;;14.20;99.20;;;;;;5093678;28;20702;-80
2021/04/26 11:18:34;;;;;;;0.20;0.20;;;14.20;99.20;;;;;;5077019;28;20305;-81
2021/04/26 11:21:00;;;;;;;0.10;0.10;;;14.00;98.30;;;;;;5101960;28;20572;-80
2021/04/26 11:23:48;;;;;;;0.17;0.17;;;13.90;98.80;;;;;;5072125;28;20187;-80
2021/04/26 11:26:24;;;;;;;0.10;0.10;;;14.10;99.10;;;;;;5081284;28;20660;-81
2021/04/26 11:29:01;;;;;;;0.10;0.10;;;14.20;99.80;;;;;;5093332;28;20182;-80
2021/04/26 11:31:45;;;;;;;0.10;0.10;;;13.80;98.60;;;;;;5058900;28;20717;-80
2021/04/26 11:34:17;;;;;;;0.73;0.20;;;14.50;99.50;;;;;;5075482;28;20190;-81
2021/04/26 11:37:01;;;;;;;0.27;0.27;;;14.30;99.20;;;;;;5070451;28;20230;-81
2021/04/26 11:39:33;;;;;;;0.40;0.30;;;14.80;98.80;;;;;;5062814;28;20207;-80
2021/04/26 11:41:59;;;;;;;0.20;0.20;;;14.10;98.40;;;;;;5074446;28;20274;-81
2021/04/26 11:44:26;;;;;;;0.10;0.10;;;13.60;98.20;;;;;;5058209;28;20217;-81
2021/04/26 11:46:53;;;;;;;0.20;0.10;;;13.60;97.90;;;;;;5083865;28;20689;-80
2021/04/26 11:49:21;;;;;;;0.10;0.10;;;13.70;97.90;;;;;;5061867;28;20198;-81
2021/04/26 11:51:53;;;;;;;0.10;0.10;;;13.60;97.20;;;;;;5089340;28;20667;-82
2021/04/26 11:54:25;;;;;;;0.27;0.27;;;13.60;97.80;;;;;;5080923;28;20180;-80
2021/04/26 11:57:06;;;;;;;0.10;0.10;;;13.70;98.40;;;;;;5077627;28;20638;-80
2021/04/26 11:59:33;;;;;;;0.10;0.10;;;14.20;98.80;;;;;;5060295;28;20229;-80
2021/04/26 12:01:59;;;;;;;0.10;0.10;;;14.10;99.60;;;;;;5068172;28;20659;-79
2021/04/26 12:04:37;;;;;;;0.20;0.20;;;14.00;98.70;;;;;;5063801;28;20291;-78
2021/04/26 12:07:03;;;;;;;0.10;0.10;;;14.40;99.10;;;;;;5052125;28;20204;-77
2021/04/26 12:09:29;;;;;;;0.13;0.13;;;14.80;99.00;;;;;;5063290;28;20194;-80
2021/04/26 12:12:00;;;;;;;0.20;0.20;;;14.20;97.40;;;;;;5066504;28;20174;-79
2021/04/26 12:14:25;;;;;;;0.40;0.40;;;14.00;97.50;;;;;;5072945;28;20188;-79
2021/04/26 12:16:51;;;;;;;0.43;0.20;;;14.30;97.70;;;;;;5061288;28;20567;-79
2021/04/26 12:19:31;;;;;;;0.10;0.10;;;14.20;97.60;;;;;;5091592;28;20190;-80
2021/04/26 12:21:57;;;;;;;0.20;0.20;;;14.80;97.90;;;;;;5053836;28;20671;-80
2021/04/26 12:24:22;;;;;;;0.43;0.10;;;14.60;97.60;;;;;;5081555;28;20187;-80
2021/04/26 12:26:48;;;;;;;0.60;0.40;;;15.20;98.60;;;;;;5088613;28;20211;-81
2021/04/26 12:29:29;;;;;;;0.30;0.20;;;15.30;99.00;;;;;;5074435;28;20198;-80
2021/04/26 12:32:11;;;;;;;0.10;0.10;;;15.40;98.50;;;;;;5055461;28;20273;-80
2021/04/26 12:34:49;;;;;;;0.10;0.10;;;15.70;98.30;;;;;;5081410;28;20257;-79
2021/04/26 12:37:14;;;;;;;0.10;0.10;;;15.50;99.50;;;;;;5074644;28;20195;-79
2021/04/26 12:39:40;;;;;;;0.30;0.30;;;15.10;99.00;;;;;;5055147;28;20204;-81
2021/04/26 12:42:15;;;;;;;0.10;0.10;;;15.20;98.90;;;;;;5086062;28;20270;-80
2021/04/26 12:44:45;;;;;;;0.10;0.10;;;14.80;97.70;;;;;;5086065;28;20182;-80
2021/04/26 12:47:20;;;;;;;0.20;0.20;;;14.70;97.70;;;;;;5066454;28;20618;-78
2021/04/26 12:49:47;;;;;;;0.27;0.27;;;14.60;97.00;;;;;;5054395;28;20309;-80
2021/04/26 12:52:17;;;;;;;0.10;0.10;;;14.80;98.60;;;;;;5065566;28;20640;-80
2021/04/26 12:55:08;;;;;;;0.73;0.47;;;15.00;98.50;;;;;;5076730;28;20191;-80
2021/04/26 12:57:35;;;;;;;0.10;0.10;;;14.90;98.10;;;;;;5059228;28;20193;-80
2021/04/26 13:00:08;;;;;;;0.10;0.10;;;14.40;97.30;;;;;;5053134;28;20212;-83
2021/04/26 13:02:34;;;;;;;0.10;0.10;;;14.70;98.50;;;;;;5066126;28;20188;-82
2021/04/26 13:05:00;;;;;;;0.10;0.10;;;15.20;98.00;;;;;;5064707;28;20187;-81